createdAt,value
2019-04-25T00:01:04.682Z,17.28
2019-04-25T00:06:09.664Z,17.44
2019-04-25T00:11:14.293Z,17.44
2019-04-25T00:16:21.613Z,17.33
2019-04-25T00:21:32.053Z,17.23
2019-04-25T00:26:38.342Z,17.16
2019-04-25T00:31:43.740Z,17.08
2019-04-25T00:36:48.922Z,17.04
2019-04-25T00:41:53.727Z,17.05
2019-04-25T00:46:58.176Z,17.06
2019-04-25T00:52:04.343Z,16.89
2019-04-25T00:57:08.685Z,16.83
2019-04-25T01:02:14.692Z,16.82
2019-04-25T01:07:19.214Z,16.79
2019-04-25T01:12:23.618Z,16.66
2019-04-25T01:17:27.997Z,16.64
2019-04-25T01:22:32.342Z,16.57
2019-04-25T01:27:36.676Z,16.49
2019-04-25T01:32:41.131Z,16.39
2019-04-25T01:37:56.212Z,16.12
2019-04-25T01:43:03.718Z,16.01
2019-04-25T01:48:08.312Z,16.02
2019-04-25T01:53:14.463Z,15.90
2019-04-25T01:58:20.134Z,15.69
2019-04-25T02:03:27.263Z,15.49
2019-04-25T02:08:31.806Z,15.50
2019-04-25T02:13:36.831Z,15.69
2019-04-25T02:18:41.434Z,15.65
2019-04-25T02:23:46.762Z,15.42
2019-04-25T02:28:51.127Z,15.46
2019-04-25T02:33:59.644Z,15.46
2019-04-25T02:39:04.540Z,15.19
2019-04-25T02:44:10.093Z,15.22
2019-04-25T02:49:29.908Z,15.12
2019-04-25T02:54:22.108Z,15.17
2019-04-25T02:59:26.477Z,14.94
2019-04-25T03:04:30.853Z,14.75
2019-04-25T03:09:35.440Z,14.67
2019-04-25T03:14:39.815Z,14.53
2019-04-25T03:19:54.069Z,14.72
2019-04-25T03:24:59.666Z,14.67
2019-04-25T03:30:09.561Z,14.35
2019-04-25T03:35:10.999Z,14.26
2019-04-25T03:40:15.339Z,14.18
2019-04-25T03:45:20.745Z,14.28
2019-04-25T03:50:25.093Z,14.28
2019-04-25T03:55:29.430Z,14.14
2019-04-25T04:00:34.210Z,14.05
2019-04-25T04:05:40.061Z,13.98
2019-04-25T04:10:44.430Z,14.01
2019-04-25T04:15:48.778Z,14.15
2019-04-25T04:20:57.712Z,13.94
2019-04-25T04:26:03.297Z,13.96
2019-04-25T04:31:08.364Z,13.49
2019-04-25T04:36:14.827Z,14.39
2019-04-25T04:41:18.751Z,14.75
2019-04-25T04:46:24.019Z,15.10
2019-04-25T04:51:28.554Z,14.81
2019-04-25T04:56:34.190Z,15.61
2019-04-25T05:01:55.354Z,15.33
2019-04-25T05:07:01.372Z,16.02
2019-04-25T05:12:05.708Z,16.40
2019-04-25T05:17:10.066Z,16.14
2019-04-25T05:22:15.968Z,16.69
2019-04-25T05:27:37.130Z,16.77
2019-04-25T05:32:27.327Z,17.24
2019-04-25T05:37:33.547Z,17.19
2019-04-25T05:42:51.552Z,17.50
2019-04-25T05:47:55.886Z,17.47
2019-04-25T05:53:00.222Z,17.45
2019-04-25T05:58:04.815Z,17.77
2019-04-25T06:03:09.214Z,17.82
2019-04-25T06:08:14.875Z,18.03
2019-04-25T06:13:36.271Z,18.14
2019-04-25T06:18:44.052Z,18.41
2019-04-25T06:23:54.424Z,18.46
2019-04-25T06:28:59.821Z,18.98
2019-04-25T06:34:04.656Z,18.91
2019-04-25T06:39:09.053Z,19.34
2019-04-25T06:44:15.135Z,19.48
2019-04-25T06:49:26.389Z,18.88
2019-04-25T06:54:31.622Z,19.48
2019-04-25T06:59:39.550Z,19.56
2019-04-25T07:04:43.513Z,19.83
2019-04-25T07:09:48.166Z,19.70
2019-04-25T07:14:53.896Z,20.19
2019-04-25T07:19:58.312Z,20.47
2019-04-25T07:25:03.648Z,20.02
2019-04-25T07:30:31.208Z,20.05
2019-04-25T07:35:31.434Z,20.09
2019-04-25T07:40:36.060Z,20.71
2019-04-25T07:45:40.854Z,20.72
2019-04-25T07:50:45.212Z,20.55
2019-04-25T07:55:49.580Z,20.97
2019-04-25T08:00:54.058Z,20.21
2019-04-25T08:06:00.043Z,20.80
2019-04-25T08:11:07.235Z,20.60
2019-04-25T08:16:14.559Z,20.90
2019-04-25T08:21:19.035Z,20.84
2019-04-25T08:26:24.011Z,21.20
2019-04-25T08:31:28.459Z,21.05
2019-04-25T08:36:33.827Z,20.73
2019-04-25T08:41:38.893Z,20.68
2019-04-25T08:46:44.217Z,21.00
2019-04-25T08:51:51.037Z,20.92
2019-04-25T08:57:00.657Z,20.68
2019-04-25T09:02:06.672Z,21.15
2019-04-25T09:07:11.117Z,20.93
2019-04-25T09:12:15.947Z,20.85
2019-04-25T09:17:20.295Z,20.86
2019-04-25T09:22:24.733Z,20.69
2019-04-25T09:27:29.117Z,20.59
2019-04-25T09:32:34.770Z,20.65
2019-04-25T09:37:40.804Z,20.68
2019-04-25T09:42:46.860Z,20.79
2019-04-25T09:47:53.329Z,20.80
2019-04-25T09:52:57.791Z,20.77
2019-04-25T09:58:18.993Z,20.75
2019-04-25T10:03:23.458Z,20.81
2019-04-25T10:08:27.754Z,21.01
2019-04-25T10:13:33.741Z,20.84
2019-04-25T10:18:39.208Z,20.96
2019-04-25T10:23:46.444Z,21.20
2019-04-25T10:28:50.789Z,21.18
2019-04-25T10:33:56.298Z,21.56
2019-04-25T10:39:07.954Z,21.64
2019-04-25T10:44:08.780Z,21.62
2019-04-25T10:49:14.512Z,21.41
2019-04-25T10:54:19.123Z,21.51
2019-04-25T10:59:23.689Z,21.49
2019-04-25T11:04:29.857Z,21.62
2019-04-25T11:09:34.479Z,22.12
2019-04-25T11:14:38.827Z,22.23
2019-04-25T11:19:44.513Z,22.41
2019-04-25T11:24:49.023Z,22.34
2019-04-25T11:30:02.845Z,22.04
2019-04-25T11:34:59.707Z,22.33
2019-04-25T11:40:14.440Z,22.29
2019-04-25T11:45:18.989Z,22.35
2019-04-25T11:50:23.604Z,22.89
2019-04-25T11:55:28.035Z,22.81
2019-04-25T12:00:33.830Z,22.42
2019-04-25T12:05:38.156Z,22.48
2019-04-25T12:10:45.814Z,22.39
2019-04-25T12:15:49.904Z,22.62
2019-04-25T12:20:55.441Z,22.97
2019-04-25T12:26:00.376Z,22.63
2019-04-25T12:31:04.814Z,22.74
2019-04-25T12:36:09.192Z,22.79
2019-04-25T12:41:13.557Z,22.73
2019-04-25T12:46:19.576Z,23.06
2019-04-25T12:51:23.917Z,23.15
2019-04-25T12:56:28.258Z,22.86
2019-04-25T13:01:33.373Z,22.97
2019-04-25T13:06:37.877Z,23.45
2019-04-25T13:11:43.468Z,23.23
2019-04-25T13:16:48.939Z,23.61
2019-04-25T13:21:54.418Z,23.74
2019-04-25T13:27:00.686Z,23.42
2019-04-25T13:32:12.494Z,23.50
2019-04-25T13:37:17.143Z,23.79
2019-04-25T13:42:23.178Z,23.44
2019-04-25T13:47:29.363Z,23.52
2019-04-25T13:52:35.876Z,23.78
2019-04-25T13:57:40.128Z,23.79
2019-04-25T14:02:44.964Z,23.80
2019-04-25T14:07:49.342Z,23.96
2019-04-25T14:12:53.746Z,23.78
2019-04-25T14:18:03.768Z,24.19
2019-04-25T14:23:12.897Z,23.98
2019-04-25T14:28:16.412Z,23.98
2019-04-25T14:33:20.892Z,24.34
2019-04-25T14:38:26.287Z,23.99
2019-04-25T14:43:31.166Z,24.07
2019-04-25T14:48:35.542Z,24.47
2019-04-25T14:53:40.025Z,24.43
2019-04-25T14:58:46.160Z,24.33
2019-04-25T15:03:50.501Z,24.14
2019-04-25T15:08:54.842Z,24.03
2019-04-25T15:13:59.214Z,23.98
2019-04-25T15:19:06.594Z,24.16
2019-04-25T15:24:10.949Z,24.17
2019-04-25T15:29:15.560Z,24.29
2019-04-25T15:34:20.619Z,24.29
2019-04-25T15:39:26.618Z,24.39
2019-04-25T15:44:35.385Z,24.34
2019-04-25T15:49:40.884Z,23.82
2019-04-25T15:54:45.334Z,23.85
2019-04-25T15:59:49.696Z,23.25
2019-04-25T16:04:54.078Z,23.18
2019-04-25T16:09:58.462Z,23.12
2019-04-25T16:15:04.000Z,23.09
2019-04-25T16:20:09.237Z,23.09
2019-04-25T16:25:16.241Z,22.89
2019-04-25T16:30:22.641Z,23.12
2019-04-25T16:35:27.027Z,23.33
2019-04-25T16:40:31.908Z,23.71
2019-04-25T16:45:37.937Z,23.64
2019-04-25T16:50:42.473Z,23.56
2019-04-25T16:55:48.021Z,23.64
2019-04-25T17:00:53.995Z,23.69
2019-04-25T17:05:58.346Z,23.43
2019-04-25T17:11:02.747Z,23.52
2019-04-25T17:16:27.118Z,23.28
2019-04-25T17:21:32.445Z,23.29
2019-04-25T17:26:36.884Z,23.43
2019-04-25T17:31:50.310Z,23.43
2019-04-25T17:37:05.008Z,23.26
2019-04-25T17:42:09.436Z,23.10
2019-04-25T17:47:13.792Z,23.00
2019-04-25T17:52:18.164Z,22.85
2019-04-25T17:57:22.516Z,22.71
2019-04-25T18:02:27.042Z,22.65
2019-04-25T18:07:33.049Z,22.50
2019-04-25T18:12:38.610Z,22.38
2019-04-25T18:17:43.018Z,22.33
2019-04-25T18:22:49.019Z,22.19
2019-04-25T18:27:55.041Z,22.09
2019-04-25T18:33:10.641Z,21.95
2019-04-25T18:38:23.334Z,21.88
2019-04-25T18:43:29.314Z,21.81
2019-04-25T18:48:33.672Z,21.66
2019-04-25T18:53:57.892Z,21.55
2019-04-25T18:59:20.727Z,21.50
2019-04-25T19:04:36.076Z,21.42
2019-04-25T19:09:40.973Z,21.36
2019-04-25T19:14:45.362Z,21.24
2019-04-25T19:19:49.805Z,21.21
2019-04-25T19:24:54.937Z,21.18
2019-04-25T19:29:59.355Z,21.12
2019-04-25T19:35:04.384Z,21.09
2019-04-25T19:40:10.564Z,20.99
2019-04-25T19:45:15.050Z,20.99
2019-04-25T19:50:19.455Z,20.94
2019-04-25T19:55:24.546Z,20.83
2019-04-25T20:00:29.065Z,20.73
2019-04-25T20:05:44.314Z,20.59
2019-04-25T20:10:51.366Z,20.47
2019-04-25T20:15:55.899Z,20.43
2019-04-25T20:21:00.277Z,20.25
2019-04-25T20:26:04.610Z,20.27
2019-04-25T20:31:11.438Z,20.22
2019-04-25T20:36:17.869Z,20.06
2019-04-25T20:41:25.336Z,20.03
2019-04-25T20:46:30.132Z,19.95
2019-04-25T20:51:34.577Z,19.94
2019-04-25T20:56:38.955Z,19.82
2019-04-25T21:01:43.354Z,19.74
2019-04-25T21:06:49.276Z,19.59
2019-04-25T21:11:53.907Z,19.71
2019-04-25T21:16:59.948Z,19.60
2019-04-25T21:22:04.457Z,19.47
2019-04-25T21:27:08.848Z,19.36
2019-04-25T21:32:13.875Z,19.33
2019-04-25T21:37:19.801Z,19.26
2019-04-25T21:42:40.548Z,19.17
2019-04-25T21:47:44.106Z,19.00
2019-04-25T21:52:48.700Z,18.82
2019-04-25T21:57:53.600Z,18.97
2019-04-25T22:02:59.055Z,18.91
2019-04-25T22:08:04.907Z,18.66
2019-04-25T22:13:16.141Z,18.54
2019-04-25T22:18:15.541Z,18.51
2019-04-25T22:23:19.894Z,18.44
2019-04-25T22:28:24.412Z,18.37
2019-04-25T22:33:30.648Z,18.10
2019-04-25T22:38:42.622Z,18.09
2019-04-25T22:43:48.864Z,18.03
2019-04-25T22:48:53.382Z,18.09
2019-04-25T22:53:57.750Z,18.13
2019-04-25T22:59:02.907Z,18.05
2019-04-25T23:04:09.341Z,17.98
2019-04-25T23:09:14.315Z,18.04
2019-04-25T23:14:19.051Z,17.97
2019-04-25T23:19:23.397Z,18.12
2019-04-25T23:24:29.683Z,18.09
2019-04-25T23:29:34.454Z,18.09
2019-04-25T23:34:38.774Z,18.12
2019-04-25T23:39:43.161Z,17.98
2019-04-25T23:44:47.506Z,17.99
2019-04-25T23:49:51.957Z,17.99
2019-04-25T23:54:56.600Z,17.68
